Time;durP1;ratioP1;P1;durP2;ratioP2;P2;SDS_P1;SDS_P2;PMS_P1;PMS_P2;Temp;Humidity;BMP_temperature;BMP_pressure;BME280_temperature;BME280_humidity;BME280_pressure;Samples;Min_cycle;Max_cycle;Signal;HPM_P1;HPM_P2
2021/11/22 00:01:21;;;;;;;19.40;17.40;;;8.60;99.90;;;;;;10485429;28;20252;-81
2021/11/22 00:06:23;;;;;;;19.07;17.17;;;8.50;99.90;;;;;;10468938;28;20323;-81
2021/11/22 00:11:26;;;;;;;18.60;16.70;;;8.60;99.90;;;;;;10509364;28;20248;-81
2021/11/22 00:16:29;;;;;;;18.40;16.50;;;8.60;99.90;;;;;;10485110;28;20204;-81
2021/11/22 00:21:31;;;;;;;21.70;17.43;;;8.60;99.90;;;;;;10484379;28;20240;-82
2021/11/22 00:26:33;;;;;;;20.10;17.30;;;8.60;99.90;;;;;;10502005;28;20703;-82
2021/11/22 00:31:37;;;;;;;19.87;17.90;;;8.60;99.90;;;;;;10483872;28;20288;-82
2021/11/22 00:36:47;;;;;;;20.20;18.10;;;8.60;99.90;;;;;;10468554;28;20240;-82
2021/11/22 00:41:49;;;;;;;21.97;19.73;;;8.60;99.90;;;;;;10488990;28;20867;-81
2021/11/22 00:46:53;;;;;;;22.10;19.70;;;8.60;99.90;;;;;;10498112;28;20236;-80
2021/11/22 00:51:55;;;;;;;21.57;19.03;;;8.60;99.90;;;;;;10472960;28;20228;-81
2021/11/22 00:56:57;;;;;;;22.33;19.97;;;8.70;99.90;;;;;;10481794;28;20197;-82
2021/11/22 01:02:00;;;;;;;27.90;20.63;;;8.70;99.90;;;;;;10499153;28;20246;-80
2021/11/22 01:07:04;;;;;;;23.77;21.00;;;8.70;99.90;;;;;;10480304;28;20251;-80
2021/11/22 01:12:07;;;;;;;24.37;20.73;;;8.70;99.90;;;;;;10481522;28;20233;-81
2021/11/22 01:17:11;;;;;;;26.33;21.67;;;8.70;99.90;;;;;;10480148;28;20631;-81
2021/11/22 01:22:13;;;;;;;24.37;20.37;;;8.70;99.90;;;;;;10481245;28;20266;-83
2021/11/22 01:27:15;;;;;;;27.53;22.60;;;8.70;99.90;;;;;;10473880;28;20235;-81
2021/11/22 01:32:18;;;;;;;25.23;20.93;;;8.70;99.90;;;;;;10480161;28;20267;-82
2021/11/22 01:37:21;;;;;;;28.50;21.07;;;8.70;99.90;;;;;;10463213;28;20211;-81
2021/11/22 01:42:23;;;;;;;29.40;22.20;;;8.70;99.90;;;;;;10479567;28;20576;-81
2021/11/22 01:47:27;;;;;;;26.30;21.33;;;8.60;99.90;;;;;;10479259;28;20273;-81
2021/11/22 01:52:29;;;;;;;27.20;21.87;;;8.70;99.90;;;;;;10465978;28;20736;-81
2021/11/22 01:57:32;;;;;;;26.17;21.47;;;8.70;99.90;;;;;;10477918;28;20206;-81
2021/11/22 02:02:35;;;;;;;27.80;21.97;;;8.70;99.90;;;;;;10473296;28;20227;-80
2021/11/22 02:07:38;;;;;;;26.63;22.00;;;8.70;99.90;;;;;;10478340;28;20230;-81
2021/11/22 02:12:40;;;;;;;28.13;22.27;;;8.70;99.90;;;;;;10461361;28;20708;-80
2021/11/22 02:17:46;;;;;;;27.10;20.87;;;8.70;99.90;;;;;;10460811;28;20208;-82
2021/11/22 02:22:50;;;;;;;27.73;21.70;;;8.70;99.90;;;;;;10461382;28;20617;-80
2021/11/22 02:27:53;;;;;;;23.57;19.87;;;8.70;99.90;;;;;;10495785;28;20319;-81
2021/11/22 02:32:56;;;;;;;21.10;18.90;;;8.70;99.90;;;;;;10478190;28;20200;-82
2021/11/22 02:38:00;;;;;;;22.83;19.77;;;8.70;99.90;;;;;;10499128;28;20223;-81
2021/11/22 02:43:02;;;;;;;25.30;21.60;;;8.70;99.90;;;;;;10481074;28;20208;-80
2021/11/22 02:48:05;;;;;;;28.80;22.60;;;8.70;99.90;;;;;;10477350;28;20232;-81
2021/11/22 02:53:08;;;;;;;24.13;21.53;;;8.70;99.90;;;;;;10460143;28;20200;-82
2021/11/22 02:58:10;;;;;;;23.93;21.17;;;8.70;99.90;;;;;;10478322;28;20220;-82
2021/11/22 03:03:13;;;;;;;30.20;22.50;;;8.70;99.90;;;;;;10477307;28;20300;-82
2021/11/22 03:08:16;;;;;;;29.47;22.73;;;8.70;99.90;;;;;;10477344;28;20342;-81
2021/11/22 03:13:18;;;;;;;27.53;22.93;;;8.70;99.90;;;;;;10477722;28;20208;-82
2021/11/22 03:18:20;;;;;;;26.27;23.07;;;8.70;99.90;;;;;;10477421;28;20282;-81
2021/11/22 03:23:24;;;;;;;30.57;24.93;;;8.60;99.90;;;;;;10460724;28;20253;-82
2021/11/22 03:28:27;;;;;;;38.03;26.60;;;8.60;99.90;;;;;;10500993;28;20224;-80
2021/11/22 03:33:30;;;;;;;32.57;24.90;;;8.60;99.90;;;;;;10487005;28;20644;-80
2021/11/22 03:38:34;;;;;;;35.33;27.53;;;8.60;99.90;;;;;;10468305;28;20220;-81
2021/11/22 03:43:44;;;;;;;36.50;26.77;;;8.60;99.90;;;;;;10504056;28;20205;-81
2021/11/22 03:48:47;;;;;;;30.90;25.10;;;8.50;99.90;;;;;;10469247;28;20244;-82
2021/11/22 03:53:50;;;;;;;31.83;26.20;;;8.50;99.90;;;;;;10467416;28;20219;-81
2021/11/22 03:58:53;;;;;;;32.03;27.10;;;8.50;99.90;;;;;;10483564;28;20231;-80
2021/11/22 04:03:56;;;;;;;31.07;25.03;;;8.40;99.90;;;;;;10502392;28;20235;-81
2021/11/22 04:09:00;;;;;;;35.03;25.97;;;8.40;99.90;;;;;;10504246;28;20259;-81
2021/11/22 04:14:02;;;;;;;30.47;26.60;;;8.40;99.90;;;;;;10469092;28;20647;-81
2021/11/22 04:19:04;;;;;;;29.33;24.57;;;8.40;99.90;;;;;;10484589;28;20270;-81
2021/11/22 04:24:08;;;;;;;28.70;24.67;;;8.40;99.90;;;;;;10483509;28;20204;-80
2021/11/22 04:29:10;;;;;;;27.93;24.37;;;8.30;99.90;;;;;;10465571;28;20578;-80
2021/11/22 04:34:12;;;;;;;26.57;23.77;;;8.30;99.90;;;;;;10482992;28;20203;-81
2021/11/22 04:39:15;;;;;;;27.77;24.90;;;8.30;99.90;;;;;;10482471;28;20663;-81
2021/11/22 04:44:18;;;;;;;26.47;22.57;;;8.30;99.90;;;;;;10500079;28;20220;-80
2021/11/22 04:49:20;;;;;;;32.63;23.77;;;8.30;99.90;;;;;;10484464;28;20275;-79
2021/11/22 04:54:23;;;;;;;24.70;21.67;;;8.30;99.90;;;;;;10483346;28;20299;-79
2021/11/22 04:59:25;;;;;;;25.77;23.00;;;8.30;99.90;;;;;;10480003;28;20232;-81
2021/11/22 05:04:28;;;;;;;26.90;23.30;;;8.30;99.90;;;;;;10475590;28;20869;-80
2021/11/22 05:09:32;;;;;;;24.97;22.30;;;8.30;99.90;;;;;;10481261;28;20246;-80
2021/11/22 05:14:34;;;;;;;25.27;22.57;;;8.30;99.90;;;;;;10474079;28;20215;-80
2021/11/22 05:19:36;;;;;;;22.10;19.63;;;8.40;99.90;;;;;;10481347;28;20242;-80
2021/11/22 05:24:40;;;;;;;25.23;21.77;;;8.40;99.90;;;;;;10480437;28;20213;-81
2021/11/22 05:29:42;;;;;;;27.20;22.47;;;8.30;99.90;;;;;;10497669;28;20219;-81
2021/11/22 05:34:44;;;;;;;25.13;21.00;;;8.30;99.90;;;;;;10479478;28;20349;-80
2021/11/22 05:39:48;;;;;;;23.43;20.97;;;8.30;99.90;;;;;;10477372;28;20616;-79
2021/11/22 05:44:50;;;;;;;21.77;19.47;;;8.30;99.90;;;;;;10476421;28;20680;-81
2021/11/22 05:49:52;;;;;;;23.20;20.70;;;8.40;99.90;;;;;;10462757;28;20235;-80
2021/11/22 05:54:56;;;;;;;22.60;20.20;;;8.40;99.90;;;;;;10478982;28;20263;-80
2021/11/22 05:59:59;;;;;;;21.60;19.30;;;8.40;99.90;;;;;;10498293;28;20303;-80
2021/11/22 06:05:01;;;;;;;20.80;18.60;;;8.40;99.90;;;;;;10497353;28;20288;-81
2021/11/22 06:10:05;;;;;;;21.50;19.07;;;8.40;99.90;;;;;;10454365;28;20303;-81
2021/11/22 06:15:08;;;;;;;22.37;19.83;;;8.40;99.90;;;;;;10479303;28;20715;-81
2021/11/22 06:20:11;;;;;;;20.90;17.47;;;8.40;99.90;;;;;;10517883;22;20240;-82
2021/11/22 06:25:17;;;;;;;20.37;18.27;;;8.30;99.90;;;;;;10511669;28;20590;-82
2021/11/22 06:30:20;;;;;;;18.50;16.60;;;8.40;99.90;;;;;;10520124;28;20594;-81
2021/11/22 06:35:22;;;;;;;19.13;17.20;;;8.40;99.90;;;;;;10511216;28;20579;-81
2021/11/22 06:40:26;;;;;;;19.17;17.13;;;8.40;99.90;;;;;;10521920;28;20222;-81
2021/11/22 06:45:28;;;;;;;17.67;15.83;;;8.40;99.90;;;;;;10539716;28;20218;-81
2021/11/22 06:50:30;;;;;;;18.33;16.57;;;8.40;99.90;;;;;;10523240;28;20695;-80
2021/11/22 06:55:34;;;;;;;19.90;16.30;;;8.40;99.90;;;;;;10523168;28;20227;-81
2021/11/22 07:00:36;;;;;;;17.80;15.00;;;8.50;99.90;;;;;;10522807;28;20230;-80
2021/11/22 07:05:38;;;;;;;16.10;14.40;;;8.50;99.90;;;;;;10515160;28;20234;-80
2021/11/22 07:10:42;;;;;;;15.33;13.93;;;8.50;99.90;;;;;;10537679;28;20235;-80
2021/11/22 07:15:44;;;;;;;15.80;14.20;;;8.50;99.90;;;;;;10520341;28;20235;-80
2021/11/22 07:20:47;;;;;;;11.57;10.50;;;8.60;99.90;;;;;;10542924;28;20585;-80
2021/11/22 07:25:51;;;;;;;13.10;11.83;;;8.60;99.90;;;;;;10538815;28;20211;-80
2021/11/22 07:30:53;;;;;;;14.43;13.03;;;8.60;99.90;;;;;;10556211;28;20250;-80
2021/11/22 07:35:55;;;;;;;12.57;11.37;;;8.60;99.90;;;;;;10537977;28;20238;-80
2021/11/22 07:40:59;;;;;;;12.60;11.50;;;8.70;99.90;;;;;;10556954;28;20223;-80
2021/11/22 07:46:01;;;;;;;12.97;11.77;;;8.70;99.90;;;;;;10538148;28;20746;-80
2021/11/22 07:51:04;;;;;;;12.60;11.40;;;8.70;99.90;;;;;;10538700;28;20223;-80
2021/11/22 07:56:08;;;;;;;13.70;12.40;;;8.70;99.90;;;;;;10521951;28;20290;-80
2021/11/22 08:01:11;;;;;;;14.20;12.80;;;8.80;99.90;;;;;;10556197;28;20250;-81
2021/11/22 08:06:13;;;;;;;13.70;12.37;;;8.70;99.90;;;;;;10557014;28;20721;-81
2021/11/22 08:11:31;;;;;;;14.60;12.63;;;8.70;99.90;;;;;;10557363;28;20219;-81
2021/11/22 08:16:34;;;;;;;12.73;11.40;;;8.70;99.90;;;;;;10512387;28;20580;-81
2021/11/22 08:21:37;;;;;;;12.90;11.60;;;8.70;99.90;;;;;;10533547;28;20311;-81
2021/11/22 08:26:41;;;;;;;13.37;12.07;;;8.60;99.90;;;;;;10525175;28;20227;-81
2021/11/22 08:31:43;;;;;;;13.47;12.17;;;8.60;99.90;;;;;;10540028;28;20234;-81
2021/11/22 08:36:45;;;;;;;12.83;11.57;;;8.60;99.90;;;;;;10534094;28;20204;-81
2021/11/22 08:41:48;;;;;;;12.37;11.20;;;8.70;99.90;;;;;;10525993;28;20719;-81
2021/11/22 08:46:50;;;;;;;12.50;11.27;;;8.70;99.90;;;;;;10507137;28;20224;-81
2021/11/22 08:51:53;;;;;;;11.73;10.60;;;8.70;99.90;;;;;;10526013;28;20281;-81
2021/11/22 08:56:57;;;;;;;12.87;11.67;;;8.70;99.90;;;;;;10523976;28;20196;-81
2021/11/22 09:01:59;;;;;;;12.67;11.47;;;8.70;99.90;;;;;;10521674;28;20216;-81
2021/11/22 09:07:01;;;;;;;12.60;11.40;;;8.80;99.90;;;;;;10509051;28;20348;-81
2021/11/22 09:12:05;;;;;;;14.20;11.53;;;8.80;99.90;;;;;;10527043;28;20252;-81
2021/11/22 09:17:08;;;;;;;13.17;11.80;;;8.90;99.90;;;;;;10523936;28;20204;-81
2021/11/22 09:22:12;;;;;;;11.70;10.60;;;8.90;99.90;;;;;;10507308;28;20238;-81
2021/11/22 09:27:15;;;;;;;13.10;11.47;;;8.90;99.90;;;;;;10541938;28;20561;-82
2021/11/22 09:32:17;;;;;;;13.70;12.30;;;8.90;99.90;;;;;;10506295;28;20246;-81
2021/11/22 09:37:19;;;;;;;11.87;10.67;;;8.90;99.90;;;;;;10527502;28;20677;-82
2021/11/22 09:42:23;;;;;;;13.40;12.00;;;9.00;99.90;;;;;;10538565;28;20307;-81
2021/11/22 09:47:25;;;;;;;14.43;11.40;;;9.00;99.90;;;;;;10503792;28;20220;-81
2021/11/22 09:52:27;;;;;;;14.00;12.60;;;9.10;99.90;;;;;;10505829;28;20657;-81
2021/11/22 09:57:31;;;;;;;14.33;13.10;;;9.20;99.90;;;;;;10518874;28;20616;-81
2021/11/22 10:02:45;;;;;;;12.97;11.80;;;9.20;99.90;;;;;;10503250;28;20231;-81
2021/11/22 10:08:03;;;;;;;13.30;12.00;;;9.20;99.90;;;;;;10526842;28;20220;-81
2021/11/22 10:13:22;;;;;;;13.93;12.50;;;9.30;99.90;;;;;;10544401;28;20284;-81
2021/11/22 10:18:27;;;;;;;15.20;12.03;;;9.30;99.90;;;;;;10504035;28;20238;-81
2021/11/22 10:23:30;;;;;;;12.87;11.67;;;9.40;99.90;;;;;;10526568;28;20724;-81
2021/11/22 10:28:39;;;;;;;13.80;12.23;;;9.50;99.90;;;;;;10509311;28;20235;-81
2021/11/22 10:33:42;;;;;;;14.97;12.30;;;9.50;99.90;;;;;;10511885;28;20208;-81
2021/11/22 10:38:48;;;;;;;17.73;11.90;;;9.60;99.90;;;;;;10522133;28;20251;-81
2021/11/22 10:43:53;;;;;;;15.90;13.30;;;9.70;99.90;;;;;;10541811;28;20215;-81
2021/11/22 10:49:09;;;;;;;13.70;12.30;;;9.70;99.90;;;;;;10524429;28;20234;-81
2021/11/22 10:54:13;;;;;;;12.20;11.00;;;9.70;99.90;;;;;;10505883;28;20294;-81
2021/11/22 10:59:19;;;;;;;12.83;11.63;;;9.80;99.90;;;;;;10523445;28;20219;-81
2021/11/22 11:04:23;;;;;;;14.27;12.90;;;9.80;99.90;;;;;;10505503;28;20294;-81
2021/11/22 11:09:31;;;;;;;13.07;11.77;;;9.80;99.90;;;;;;10540815;28;20259;-81
2021/11/22 11:14:36;;;;;;;14.83;13.23;;;9.80;99.90;;;;;;10523111;28;20246;-82
2021/11/22 11:19:39;;;;;;;14.50;13.00;;;9.80;99.90;;;;;;10518623;28;20247;-81
2021/11/22 11:24:41;;;;;;;13.40;12.20;;;9.80;99.90;;;;;;10522097;28;20207;-82
2021/11/22 11:29:46;;;;;;;11.70;10.60;;;9.80;99.90;;;;;;10499466;28;20671;-81
2021/11/22 11:34:51;;;;;;;12.03;10.93;;;9.80;99.90;;;;;;10540068;28;20676;-81
2021/11/22 11:40:18;;;;;;;11.40;10.33;;;9.80;99.90;;;;;;10513093;28;20688;-81
2021/11/22 11:45:30;;;;;;;10.70;9.67;;;9.80;99.90;;;;;;10518071;28;20610;-81
2021/11/22 11:50:36;;;;;;;12.17;10.97;;;9.70;99.90;;;;;;10518763;28;20247;-81
2021/11/22 11:55:39;;;;;;;10.00;9.10;;;9.70;99.90;;;;;;10509179;28;20662;-81
2021/11/22 12:00:56;;;;;;;12.10;10.10;;;9.70;99.90;;;;;;10515665;28;20224;-81
2021/11/22 12:06:00;;;;;;;9.87;8.87;;;9.80;99.90;;;;;;10527261;28;20305;-81
2021/11/22 12:11:04;;;;;;;10.10;9.10;;;9.70;99.90;;;;;;10505242;28;20227;-81
2021/11/22 12:16:07;;;;;;;10.50;9.50;;;9.70;99.90;;;;;;10512219;28;20200;-81
2021/11/22 12:21:21;;;;;;;12.00;9.00;;;9.70;99.90;;;;;;10510167;22;20608;-83
2021/11/22 12:26:30;;;;;;;11.73;9.90;;;9.70;99.90;;;;;;10485835;28;20299;-83
2021/11/22 12:31:41;;;;;;;11.27;9.00;;;9.60;99.90;;;;;;10482635;28;20217;-83
2021/11/22 12:36:52;;;;;;;8.40;7.60;;;9.60;99.90;;;;;;10470594;28;20200;-83
2021/11/22 12:42:16;;;;;;;8.90;8.10;;;9.60;99.90;;;;;;10480666;28;20229;-82
2021/11/22 12:47:26;;;;;;;13.13;8.03;;;9.60;99.90;;;;;;10503686;28;20235;-82
2021/11/22 12:52:30;;;;;;;8.23;7.53;;;9.60;99.90;;;;;;10486168;28;20311;-83
2021/11/22 12:57:35;;;;;;;7.70;7.10;;;9.60;99.90;;;;;;10464608;28;20250;-83
2021/11/22 13:02:44;;;;;;;7.40;6.90;;;9.60;99.90;;;;;;10473295;28;20239;-83
2021/11/22 13:07:47;;;;;;;8.53;7.67;;;9.60;99.90;;;;;;10467441;28;20216;-83
2021/11/22 13:12:50;;;;;;;9.77;6.87;;;9.50;99.90;;;;;;10487842;28;20224;-83
2021/11/22 13:17:54;;;;;;;8.80;8.00;;;9.50;99.90;;;;;;10471112;28;20262;-83
2021/11/22 13:22:56;;;;;;;8.70;7.70;;;9.50;99.90;;;;;;10481318;28;20719;-83
2021/11/22 13:28:07;;;;;;;7.70;7.10;;;9.50;99.90;;;;;;10469077;28;20216;-83
2021/11/22 13:33:16;;;;;;;7.30;6.60;;;9.50;99.90;;;;;;10470363;28;20618;-83
2021/11/22 13:38:20;;;;;;;7.83;6.77;;;9.50;99.90;;;;;;10484817;28;20280;-82
2021/11/22 13:43:27;;;;;;;7.30;6.70;;;9.50;99.90;;;;;;10460903;28;20262;-84
2021/11/22 13:48:55;;;;;;;7.40;6.70;;;9.50;99.90;;;;;;10487534;28;20259;-83
2021/11/22 13:54:00;;;;;;;7.77;7.07;;;9.50;99.90;;;;;;10460820;28;20208;-83
2021/11/22 13:59:04;;;;;;;8.37;7.57;;;9.50;99.90;;;;;;10473440;28;20231;-83
2021/11/22 14:04:08;;;;;;;7.90;6.70;;;9.50;99.90;;;;;;10469268;28;20208;-84
2021/11/22 14:09:10;;;;;;;7.73;7.07;;;9.50;99.90;;;;;;10510365;28;20235;-86
2021/11/22 14:14:17;;;;;;;8.33;7.63;;;9.40;99.90;;;;;;10470720;28;20622;-84
2021/11/22 14:19:21;;;;;;;7.53;6.93;;;9.40;99.90;;;;;;10492246;28;20232;-84
2021/11/22 14:24:25;;;;;;;8.10;7.40;;;9.40;99.90;;;;;;10466078;28;20228;-83
2021/11/22 14:29:29;;;;;;;7.83;7.03;;;9.50;99.90;;;;;;10490216;28;20300;-83
2021/11/22 14:34:33;;;;;;;7.93;7.27;;;9.40;99.90;;;;;;10488122;28;20262;-83
2021/11/22 14:39:37;;;;;;;7.07;6.47;;;9.40;99.90;;;;;;10467187;28;20221;-82
2021/11/22 14:44:50;;;;;;;7.50;6.90;;;9.40;99.90;;;;;;10485004;28;20205;-82
2021/11/22 14:49:54;;;;;;;6.73;6.30;;;9.40;99.90;;;;;;10482926;28;20598;-82
2021/11/22 14:54:56;;;;;;;7.00;6.50;;;9.40;99.90;;;;;;10466874;28;20208;-82
2021/11/22 14:59:58;;;;;;;6.50;6.00;;;9.40;99.90;;;;;;10496392;28;20220;-82
2021/11/22 15:05:05;;;;;;;6.80;6.20;;;9.40;99.90;;;;;;10463371;28;20205;-82
2021/11/22 15:10:10;;;;;;;6.73;6.20;;;9.40;99.90;;;;;;10457499;28;20228;-82
2021/11/22 15:15:15;;;;;;;6.30;5.90;;;9.40;99.90;;;;;;10474839;28;20622;-82
2021/11/22 15:20:21;;;;;;;6.70;6.10;;;9.30;99.90;;;;;;10475377;28;20278;-82
2021/11/22 15:25:27;;;;;;;6.23;5.63;;;9.30;99.90;;;;;;10459442;28;20365;-82
2021/11/22 15:30:31;;;;;;;6.17;5.67;;;9.30;99.90;;;;;;10466765;28;20646;-82
2021/11/22 15:35:43;;;;;;;6.40;5.90;;;9.30;99.90;;;;;;10466129;28;20212;-83
2021/11/22 15:40:46;;;;;;;6.53;6.03;;;9.30;99.90;;;;;;10477533;28;20600;-83
2021/11/22 15:46:02;;;;;;;6.33;5.83;;;9.30;99.90;;;;;;10467236;28;20281;-82
2021/11/22 15:51:10;;;;;;;7.07;6.47;;;9.30;99.90;;;;;;10481788;28;20224;-82
2021/11/22 15:56:13;;;;;;;6.93;5.80;;;9.30;99.90;;;;;;10466438;28;20266;-82
2021/11/22 16:01:22;;;;;;;5.93;5.53;;;9.30;99.90;;;;;;10468954;28;20319;-82
2021/11/22 16:06:29;;;;;;;6.57;6.00;;;9.30;99.90;;;;;;10502523;28;20685;-82
2021/11/22 16:11:32;;;;;;;5.80;4.80;;;9.30;99.90;;;;;;10468270;28;20240;-82
2021/11/22 16:17:13;;;;;;;5.83;5.43;;;9.30;99.90;;;;;;10467792;28;20629;-83
2021/11/22 16:22:20;;;;;;;5.40;5.00;;;9.30;99.90;;;;;;10466165;28;20243;-81
2021/11/22 16:27:22;;;;;;;5.03;4.43;;;9.20;99.90;;;;;;10468626;28;20217;-82
2021/11/22 16:32:27;;;;;;;4.50;4.20;;;9.20;99.90;;;;;;10487607;28;20224;-82
2021/11/22 16:37:30;;;;;;;4.37;4.03;;;9.20;99.90;;;;;;10473183;28;20209;-82
2021/11/22 16:42:35;;;;;;;4.93;4.53;;;9.20;99.90;;;;;;10453030;28;20597;-82
2021/11/22 16:47:40;;;;;;;5.50;5.10;;;9.10;99.90;;;;;;10488632;28;20587;-82
2021/11/22 16:52:43;;;;;;;5.07;4.67;;;9.10;99.90;;;;;;10487507;28;20228;-81
2021/11/22 16:57:46;;;;;;;5.50;5.10;;;9.10;99.90;;;;;;10504181;28;20220;-82
2021/11/22 17:02:48;;;;;;;6.87;6.27;;;9.00;99.90;;;;;;10487310;28;20220;-81
2021/11/22 17:07:53;;;;;;;5.63;5.23;;;9.00;99.90;;;;;;10487930;28;20228;-81
2021/11/22 17:12:55;;;;;;;8.13;7.43;;;9.00;99.90;;;;;;10491784;28;20258;-82
2021/11/22 17:17:57;;;;;;;5.40;4.97;;;9.00;99.90;;;;;;10522448;28;20258;-81
2021/11/22 17:23:02;;;;;;;4.87;4.50;;;9.00;99.90;;;;;;10485970;28;20236;-82
2021/11/22 17:28:05;;;;;;;5.43;4.97;;;9.00;99.90;;;;;;10504662;28;20270;-81
2021/11/22 17:33:07;;;;;;;5.00;4.57;;;9.00;99.90;;;;;;10486979;28;20814;-81
2021/11/22 17:38:11;;;;;;;5.30;5.00;;;9.00;99.90;;;;;;10506171;28;20228;-82
2021/11/22 17:43:14;;;;;;;4.73;4.43;;;9.00;99.90;;;;;;10476676;28;20247;-82
2021/11/22 17:48:16;;;;;;;6.53;5.93;;;9.00;99.90;;;;;;10486894;28;20215;-82
2021/11/22 17:53:23;;;;;;;5.10;4.70;;;9.00;99.90;;;;;;10483089;28;20228;-82
2021/11/22 17:58:27;;;;;;;5.20;4.80;;;9.00;99.90;;;;;;10473652;28;20251;-82
2021/11/22 18:03:29;;;;;;;5.67;5.27;;;9.00;99.90;;;;;;10466342;28;20228;-82
2021/11/22 18:13:54;;;;;;;5.37;4.97;;;9.00;99.90;;;;;;10486502;28;20232;-82
2021/11/22 18:18:56;;;;;;;5.40;4.90;;;9.00;99.90;;;;;;10512050;22;20276;-80
2021/11/22 18:24:03;;;;;;;5.07;4.60;;;9.00;99.90;;;;;;10467839;28;20282;-79
2021/11/22 18:29:10;;;;;;;5.70;4.63;;;8.90;99.90;;;;;;10482900;28;20579;-80
2021/11/22 18:34:13;;;;;;;4.90;4.50;;;8.90;99.90;;;;;;10449253;28;20285;-80
2021/11/22 18:39:16;;;;;;;5.43;5.03;;;8.90;99.90;;;;;;10437176;28;20224;-79
2021/11/22 18:44:19;;;;;;;8.77;8.07;;;8.80;99.90;;;;;;10451334;28;20263;-81
2021/11/22 18:49:21;;;;;;;6.93;5.67;;;8.80;99.90;;;;;;10437569;28;20256;-80
2021/11/22 19:00:54;;;;;;;5.27;4.87;;;8.70;99.90;;;;;;10269048;28;20282;-81
2021/11/22 19:05:57;;;;;;;4.10;3.90;;;8.60;99.90;;;;;;10453828;28;20363;-81
2021/11/22 19:10:59;;;;;;;3.73;3.53;;;8.60;99.90;;;;;;10454718;28;20634;-82
2021/11/22 19:16:03;;;;;;;4.50;4.20;;;8.60;99.90;;;;;;10421213;28;20627;-83
2021/11/22 19:21:07;;;;;;;5.23;4.73;;;8.50;99.90;;;;;;10438073;28;20287;-82
2021/11/22 19:26:09;;;;;;;4.87;4.57;;;8.40;99.90;;;;;;10461176;28;20253;-82
2021/11/22 19:31:13;;;;;;;6.97;6.47;;;8.40;99.90;;;;;;10436279;28;20228;-80
2021/11/22 19:36:15;;;;;;;4.80;4.50;;;8.40;99.90;;;;;;10432737;28;20567;-81
2021/11/22 19:41:18;;;;;;;6.00;5.50;;;8.40;99.90;;;;;;10448813;28;20221;-81
2021/11/22 19:46:21;;;;;;;5.43;5.10;;;8.40;99.90;;;;;;10449080;28;20213;-82
2021/11/22 19:51:23;;;;;;;6.03;5.57;;;8.40;99.90;;;;;;10449853;28;20241;-80
2021/11/22 19:56:26;;;;;;;6.40;5.90;;;8.40;99.90;;;;;;10431509;28;20201;-81
2021/11/22 20:01:30;;;;;;;6.60;6.10;;;8.30;99.90;;;;;;10449522;28;20552;-81
2021/11/22 20:06:32;;;;;;;6.50;6.00;;;8.40;99.90;;;;;;10415166;28;20220;-80
2021/11/22 20:11:34;;;;;;;5.57;5.17;;;8.40;99.90;;;;;;10416026;28;20233;-81
2021/11/22 20:16:39;;;;;;;5.73;5.23;;;8.30;99.90;;;;;;10439671;28;20312;-79
2021/11/22 20:21:41;;;;;;;5.77;5.40;;;8.30;99.90;;;;;;10423148;28;20237;-78
2021/11/22 20:26:45;;;;;;;6.20;5.80;;;8.30;99.90;;;;;;10441215;28;20217;-79
2021/11/22 20:31:50;;;;;;;5.80;5.40;;;8.30;99.90;;;;;;10441018;28;20232;-78
2021/11/22 20:36:52;;;;;;;5.87;5.47;;;8.40;99.90;;;;;;10440098;28;20232;-79
2021/11/22 20:41:55;;;;;;;7.37;6.77;;;8.40;99.90;;;;;;10426344;28;20308;-79
2021/11/22 20:46:58;;;;;;;6.23;5.73;;;8.30;99.90;;;;;;10460892;28;20284;-79
2021/11/22 20:52:01;;;;;;;7.47;6.97;;;8.30;99.90;;;;;;10425818;28;20767;-78
2021/11/22 20:57:03;;;;;;;6.87;6.47;;;8.30;99.90;;;;;;10463189;28;20410;-79
2021/11/22 21:02:07;;;;;;;7.30;6.70;;;8.30;99.90;;;;;;10433329;28;20308;-78
2021/11/22 21:07:09;;;;;;;6.70;6.23;;;8.20;99.90;;;;;;10441113;28;20201;-80
2021/11/22 21:12:11;;;;;;;6.10;5.70;;;8.20;99.90;;;;;;10446593;28;20248;-83
2021/11/22 21:17:14;;;;;;;6.30;5.80;;;8.20;99.90;;;;;;10452968;28;20209;-80
2021/11/22 21:22:17;;;;;;;6.60;6.07;;;8.10;99.90;;;;;;10433872;28;20229;-82
2021/11/22 21:27:19;;;;;;;6.07;5.67;;;8.10;99.90;;;;;;10437752;28;20232;-78
2021/11/22 21:32:23;;;;;;;6.03;5.63;;;8.00;99.90;;;;;;10437292;28;20260;-78
2021/11/22 21:37:25;;;;;;;6.20;5.70;;;8.00;99.90;;;;;;10437367;28;20205;-81
2021/11/22 21:42:27;;;;;;;5.93;5.43;;;7.90;99.90;;;;;;10443202;28;20323;-79
2021/11/22 21:47:31;;;;;;;6.40;6.00;;;7.90;99.90;;;;;;10434801;28;20231;-80
2021/11/22 21:52:34;;;;;;;7.70;7.10;;;7.80;99.90;;;;;;10448984;28;20487;-79
2021/11/22 21:57:36;;;;;;;6.47;6.07;;;7.80;99.90;;;;;;10426912;28;20229;-83
2021/11/22 22:02:40;;;;;;;7.43;6.83;;;7.70;99.90;;;;;;10457604;28;20229;-79
2021/11/22 22:07:44;;;;;;;7.30;6.70;;;7.60;99.90;;;;;;10425075;28;20197;-81
2021/11/22 22:12:46;;;;;;;7.33;6.73;;;7.50;99.90;;;;;;10459878;28;20288;-84
2021/11/22 22:17:50;;;;;;;7.43;6.90;;;7.40;99.90;;;;;;10451836;28;20849;-83
2021/11/22 22:22:52;;;;;;;7.30;6.80;;;7.30;99.90;;;;;;10445040;28;20220;-83
2021/11/22 22:27:54;;;;;;;7.90;7.30;;;7.20;99.90;;;;;;10428085;28;20225;-85
2021/11/22 22:32:58;;;;;;;6.90;6.40;;;7.10;99.90;;;;;;10455330;28;20233;-83
2021/11/22 22:38:00;;;;;;;7.40;6.80;;;7.00;99.90;;;;;;10447859;28;20266;-85
2021/11/22 22:43:02;;;;;;;7.87;7.27;;;6.90;99.90;;;;;;10430644;28;20228;-85
2021/11/22 22:48:06;;;;;;;8.00;7.40;;;6.70;99.90;;;;;;10430199;28;20225;-85
2021/11/22 22:53:08;;;;;;;7.27;6.60;;;6.60;99.90;;;;;;10431836;28;20233;-83
2021/11/22 22:58:11;;;;;;;7.47;6.97;;;6.50;99.90;;;;;;10466116;28;20690;-83
2021/11/22 23:03:15;;;;;;;7.77;7.10;;;6.50;99.90;;;;;;10436081;28;20233;-83
2021/11/22 23:08:18;;;;;;;8.37;7.77;;;6.30;99.90;;;;;;10434636;28;20324;-82
2021/11/22 23:13:21;;;;;;;8.03;7.43;;;6.20;99.90;;;;;;10444081;28;20261;-82
2021/11/22 23:18:28;;;;;;;9.20;8.43;;;6.20;99.90;;;;;;10425589;28;20209;-83
2021/11/22 23:23:30;;;;;;;8.03;7.43;;;6.10;99.90;;;;;;10463269;28;20229;-82
2021/11/22 23:28:34;;;;;;;8.50;7.80;;;6.00;99.90;;;;;;10431482;28;20214;-83
2021/11/22 23:33:38;;;;;;;7.97;7.27;;;5.90;99.90;;;;;;10462215;28;20228;-82
2021/11/22 23:38:40;;;;;;;7.97;7.27;;;5.80;99.90;;;;;;10431783;28;20216;-83
2021/11/22 23:43:43;;;;;;;7.47;6.97;;;5.80;99.90;;;;;;10441091;28;20229;-82
2021/11/22 23:48:46;;;;;;;7.87;7.30;;;5.70;99.90;;;;;;10444568;28;20767;-83
2021/11/22 23:53:48;;;;;;;8.23;7.63;;;5.70;99.90;;;;;;10448603;28;20233;-82
2021/11/22 23:58:51;;;;;;;8.60;7.93;;;5.70;99.90;;;;;;10448577;28;20212;-83
